sensor_id;sensor_type;location;lat;lon;timestamp;P1;durP1;ratioP1;P2;durP2;ratioP2
66946;SDS011;53853;51.982;5.928;2023-07-13T00:01:42;4.50;;;1.90;;
66946;SDS011;53853;51.982;5.928;2023-07-13T00:04:13;5.82;;;2.40;;
66946;SDS011;53853;51.982;5.928;2023-07-13T00:06:43;3.97;;;1.58;;
66946;SDS011;53853;51.982;5.928;2023-07-13T00:09:14;5.30;;;1.52;;
66946;SDS011;53853;51.982;5.928;2023-07-13T00:11:45;7.93;;;2.80;;
66946;SDS011;53853;51.982;5.928;2023-07-13T00:14:21;6.13;;;1.77;;
66946;SDS011;53853;51.982;5.928;2023-07-13T00:16:52;4.47;;;1.70;;
66946;SDS011;53853;51.982;5.928;2023-07-13T00:19:22;5.38;;;1.70;;
66946;SDS011;53853;51.982;5.928;2023-07-13T00:21:53;4.72;;;1.50;;
66946;SDS011;53853;51.982;5.928;2023-07-13T00:24:23;4.47;;;1.30;;
66946;SDS011;53853;51.982;5.928;2023-07-13T00:26:53;3.25;;;1.40;;
66946;SDS011;53853;51.982;5.928;2023-07-13T00:29:26;8.10;;;2.10;;
66946;SDS011;53853;51.982;5.928;2023-07-13T00:31:56;6.35;;;1.90;;
66946;SDS011;53853;51.982;5.928;2023-07-13T00:34:26;4.13;;;1.73;;
66946;SDS011;53853;51.982;5.928;2023-07-13T00:36:57;6.90;;;1.73;;
66946;SDS011;53853;51.982;5.928;2023-07-13T00:39:27;4.82;;;1.38;;
66946;SDS011;53853;51.982;5.928;2023-07-13T00:41:57;4.15;;;1.60;;
66946;SDS011;53853;51.982;5.928;2023-07-13T00:44:30;3.55;;;1.27;;
66946;SDS011;53853;51.982;5.928;2023-07-13T00:47:01;5.13;;;1.77;;
66946;SDS011;53853;51.982;5.928;2023-07-13T00:49:32;3.63;;;1.13;;
66946;SDS011;53853;51.982;5.928;2023-07-13T00:52:05;2.77;;;1.10;;
66946;SDS011;53853;51.982;5.928;2023-07-13T00:54:38;5.53;;;1.47;;
66946;SDS011;53853;51.982;5.928;2023-07-13T00:57:12;3.53;;;1.20;;
66946;SDS011;53853;51.982;5.928;2023-07-13T00:59:50;3.78;;;1.40;;
66946;SDS011;53853;51.982;5.928;2023-07-13T01:02:24;4.28;;;1.50;;
66946;SDS011;53853;51.982;5.928;2023-07-13T01:04:56;4.88;;;2.10;;
66946;SDS011;53853;51.982;5.928;2023-07-13T01:07:27;4.50;;;1.50;;
66946;SDS011;53853;51.982;5.928;2023-07-13T01:09:57;3.40;;;1.33;;
66946;SDS011;53853;51.982;5.928;2023-07-13T01:12:27;3.30;;;1.30;;
66946;SDS011;53853;51.982;5.928;2023-07-13T01:15:00;3.25;;;1.40;;
66946;SDS011;53853;51.982;5.928;2023-07-13T01:17:32;2.97;;;1.30;;
66946;SDS011;53853;51.982;5.928;2023-07-13T01:20:03;4.32;;;1.77;;
66946;SDS011;53853;51.982;5.928;2023-07-13T01:22:37;2.33;;;1.40;;
66946;SDS011;53853;51.982;5.928;2023-07-13T01:25:07;4.80;;;1.65;;
66946;SDS011;53853;51.982;5.928;2023-07-13T01:27:37;7.97;;;2.40;;
66946;SDS011;53853;51.982;5.928;2023-07-13T01:30:10;3.15;;;1.40;;
66946;SDS011;53853;51.982;5.928;2023-07-13T01:32:40;3.20;;;1.40;;
66946;SDS011;53853;51.982;5.928;2023-07-13T01:35:10;3.60;;;1.50;;
66946;SDS011;53853;51.982;5.928;2023-07-13T01:37:45;5.30;;;2.03;;
66946;SDS011;53853;51.982;5.928;2023-07-13T01:40:15;2.42;;;1.50;;
66946;SDS011;53853;51.982;5.928;2023-07-13T01:42:45;3.92;;;1.55;;
66946;SDS011;53853;51.982;5.928;2023-07-13T01:45:17;3.95;;;2.03;;
66946;SDS011;53853;51.982;5.928;2023-07-13T01:47:47;5.53;;;1.75;;
66946;SDS011;53853;51.982;5.928;2023-07-13T01:50:18;6.57;;;1.83;;
66946;SDS011;53853;51.982;5.928;2023-07-13T01:52:50;6.53;;;1.90;;
66946;SDS011;53853;51.982;5.928;2023-07-13T01:55:21;6.50;;;1.80;;
66946;SDS011;53853;51.982;5.928;2023-07-13T01:57:51;5.32;;;2.33;;
66946;SDS011;53853;51.982;5.928;2023-07-13T02:00:22;4.45;;;1.65;;
66946;SDS011;53853;51.982;5.928;2023-07-13T02:02:54;5.22;;;2.28;;
66946;SDS011;53853;51.982;5.928;2023-07-13T02:05:24;3.63;;;1.50;;
66946;SDS011;53853;51.982;5.928;2023-07-13T02:07:57;4.85;;;2.45;;
66946;SDS011;53853;51.982;5.928;2023-07-13T02:10:27;3.55;;;1.33;;
66946;SDS011;53853;51.982;5.928;2023-07-13T02:12:57;5.32;;;2.38;;
66946;SDS011;53853;51.982;5.928;2023-07-13T02:15:28;8.23;;;2.80;;
66946;SDS011;53853;51.982;5.928;2023-07-13T02:17:58;9.68;;;3.13;;
66946;SDS011;53853;51.982;5.928;2023-07-13T02:20:29;7.07;;;2.45;;
66946;SDS011;53853;51.982;5.928;2023-07-13T02:23:02;6.20;;;2.30;;
66946;SDS011;53853;51.982;5.928;2023-07-13T02:25:32;9.13;;;2.67;;
66946;SDS011;53853;51.982;5.928;2023-07-13T02:28:02;5.05;;;3.03;;
66946;SDS011;53853;51.982;5.928;2023-07-13T02:30:33;6.88;;;3.47;;
66946;SDS011;53853;51.982;5.928;2023-07-13T02:33:04;4.40;;;2.40;;
66946;SDS011;53853;51.982;5.928;2023-07-13T02:35:34;8.32;;;2.75;;
66946;SDS011;53853;51.982;5.928;2023-07-13T02:38:07;7.57;;;2.40;;
66946;SDS011;53853;51.982;5.928;2023-07-13T02:40:37;4.07;;;2.17;;
66946;SDS011;53853;51.982;5.928;2023-07-13T02:43:07;6.90;;;3.05;;
66946;SDS011;53853;51.982;5.928;2023-07-13T02:45:38;9.02;;;3.03;;
66946;SDS011;53853;51.982;5.928;2023-07-13T02:48:13;7.88;;;2.50;;
66946;SDS011;53853;51.982;5.928;2023-07-13T02:50:43;7.32;;;3.15;;
66946;SDS011;53853;51.982;5.928;2023-07-13T02:53:16;6.35;;;2.30;;
66946;SDS011;53853;51.982;5.928;2023-07-13T02:55:46;5.93;;;2.75;;
66946;SDS011;53853;51.982;5.928;2023-07-13T02:58:16;7.32;;;2.75;;
66946;SDS011;53853;51.982;5.928;2023-07-13T03:00:47;11.70;;;3.35;;
66946;SDS011;53853;51.982;5.928;2023-07-13T03:03:18;8.13;;;2.85;;
66946;SDS011;53853;51.982;5.928;2023-07-13T03:05:48;11.45;;;3.42;;
66946;SDS011;53853;51.982;5.928;2023-07-13T03:08:36;5.90;;;2.80;;
66946;SDS011;53853;51.982;5.928;2023-07-13T03:11:08;7.68;;;2.92;;
66946;SDS011;53853;51.982;5.928;2023-07-13T03:13:41;8.98;;;3.45;;
66946;SDS011;53853;51.982;5.928;2023-07-13T03:16:13;7.70;;;2.65;;
66946;SDS011;53853;51.982;5.928;2023-07-13T03:18:46;9.37;;;4.33;;
66946;SDS011;53853;51.982;5.928;2023-07-13T03:21:16;7.82;;;3.05;;
66946;SDS011;53853;51.982;5.928;2023-07-13T03:23:49;10.23;;;3.70;;
66946;SDS011;53853;51.982;5.928;2023-07-13T03:26:20;9.13;;;3.15;;
66946;SDS011;53853;51.982;5.928;2023-07-13T03:28:50;6.95;;;2.95;;
66946;SDS011;53853;51.982;5.928;2023-07-13T03:31:24;7.22;;;3.40;;
66946;SDS011;53853;51.982;5.928;2023-07-13T03:33:56;6.20;;;2.40;;
66946;SDS011;53853;51.982;5.928;2023-07-13T03:36:28;11.70;;;3.33;;
66946;SDS011;53853;51.982;5.928;2023-07-13T03:39:05;12.75;;;4.38;;
66946;SDS011;53853;51.982;5.928;2023-07-13T03:41:46;10.57;;;3.72;;
66946;SDS011;53853;51.982;5.928;2023-07-13T03:44:16;10.63;;;3.28;;
66946;SDS011;53853;51.982;5.928;2023-07-13T03:46:52;7.10;;;3.20;;
66946;SDS011;53853;51.982;5.928;2023-07-13T03:49:23;5.93;;;3.47;;
66946;SDS011;53853;51.982;5.928;2023-07-13T03:51:53;9.88;;;3.72;;
66946;SDS011;53853;51.982;5.928;2023-07-13T03:54:26;6.75;;;2.70;;
66946;SDS011;53853;51.982;5.928;2023-07-13T03:56:56;7.93;;;3.03;;
66946;SDS011;53853;51.982;5.928;2023-07-13T03:59:29;15.45;;;3.70;;
66946;SDS011;53853;51.982;5.928;2023-07-13T04:02:00;8.65;;;3.22;;
66946;SDS011;53853;51.982;5.928;2023-07-13T04:04:33;7.68;;;2.90;;
66946;SDS011;53853;51.982;5.928;2023-07-13T04:07:06;7.75;;;3.25;;
66946;SDS011;53853;51.982;5.928;2023-07-13T04:09:42;8.15;;;3.70;;
66946;SDS011;53853;51.982;5.928;2023-07-13T04:12:12;7.53;;;3.00;;
66946;SDS011;53853;51.982;5.928;2023-07-13T04:14:42;5.18;;;2.90;;
66946;SDS011;53853;51.982;5.928;2023-07-13T04:17:12;14.57;;;4.30;;
66946;SDS011;53853;51.982;5.928;2023-07-13T04:19:42;9.07;;;3.72;;
66946;SDS011;53853;51.982;5.928;2023-07-13T04:22:12;8.43;;;3.60;;
66946;SDS011;53853;51.982;5.928;2023-07-13T04:24:45;10.38;;;4.88;;
66946;SDS011;53853;51.982;5.928;2023-07-13T04:27:15;10.55;;;4.15;;
66946;SDS011;53853;51.982;5.928;2023-07-13T04:29:45;10.32;;;3.70;;
66946;SDS011;53853;51.982;5.928;2023-07-13T04:32:15;12.93;;;5.05;;
66946;SDS011;53853;51.982;5.928;2023-07-13T04:34:45;9.93;;;4.25;;
66946;SDS011;53853;51.982;5.928;2023-07-13T04:37:20;9.80;;;4.60;;
66946;SDS011;53853;51.982;5.928;2023-07-13T04:39:52;7.65;;;4.30;;
66946;SDS011;53853;51.982;5.928;2023-07-13T04:42:22;8.00;;;3.50;;
66946;SDS011;53853;51.982;5.928;2023-07-13T04:44:53;8.05;;;3.85;;
66946;SDS011;53853;51.982;5.928;2023-07-13T04:47:23;12.65;;;4.60;;
66946;SDS011;53853;51.982;5.928;2023-07-13T04:49:53;8.55;;;4.28;;
66946;SDS011;53853;51.982;5.928;2023-07-13T04:52:23;7.75;;;3.20;;
66946;SDS011;53853;51.982;5.928;2023-07-13T04:54:56;9.55;;;3.40;;
66946;SDS011;53853;51.982;5.928;2023-07-13T04:57:26;14.93;;;4.72;;
66946;SDS011;53853;51.982;5.928;2023-07-13T04:59:57;10.30;;;4.90;;
66946;SDS011;53853;51.982;5.928;2023-07-13T05:02:32;11.13;;;4.57;;
66946;SDS011;53853;51.982;5.928;2023-07-13T05:05:02;11.73;;;5.10;;
66946;SDS011;53853;51.982;5.928;2023-07-13T05:07:33;7.55;;;3.83;;
66946;SDS011;53853;51.982;5.928;2023-07-13T05:10:09;12.20;;;3.60;;
66946;SDS011;53853;51.982;5.928;2023-07-13T05:12:39;7.63;;;3.17;;
66946;SDS011;53853;51.982;5.928;2023-07-13T05:15:09;11.02;;;4.32;;
66946;SDS011;53853;51.982;5.928;2023-07-13T05:17:40;10.48;;;4.75;;
66946;SDS011;53853;51.982;5.928;2023-07-13T05:20:10;11.30;;;4.78;;
66946;SDS011;53853;51.982;5.928;2023-07-13T05:22:40;12.00;;;5.45;;
66946;SDS011;53853;51.982;5.928;2023-07-13T05:25:15;11.95;;;4.38;;
66946;SDS011;53853;51.982;5.928;2023-07-13T05:27:45;11.87;;;5.20;;
66946;SDS011;53853;51.982;5.928;2023-07-13T05:30:15;17.45;;;5.55;;
66946;SDS011;53853;51.982;5.928;2023-07-13T05:32:46;13.95;;;5.65;;
66946;SDS011;53853;51.982;5.928;2023-07-13T05:35:16;11.77;;;4.97;;
66946;SDS011;53853;51.982;5.928;2023-07-13T05:37:46;10.80;;;4.93;;
66946;SDS011;53853;51.982;5.928;2023-07-13T05:40:19;10.02;;;4.10;;
66946;SDS011;53853;51.982;5.928;2023-07-13T05:42:49;11.65;;;5.07;;
66946;SDS011;53853;51.982;5.928;2023-07-13T05:45:19;14.07;;;5.68;;
66946;SDS011;53853;51.982;5.928;2023-07-13T05:47:49;13.85;;;6.13;;
66946;SDS011;53853;51.982;5.928;2023-07-13T05:50:19;9.93;;;4.28;;
66946;SDS011;53853;51.982;5.928;2023-07-13T05:52:49;9.20;;;4.60;;
66946;SDS011;53853;51.982;5.928;2023-07-13T05:55:22;13.73;;;6.72;;
66946;SDS011;53853;51.982;5.928;2023-07-13T05:57:52;12.13;;;4.40;;
66946;SDS011;53853;51.982;5.928;2023-07-13T06:00:23;10.68;;;3.90;;
66946;SDS011;53853;51.982;5.928;2023-07-13T06:02:55;15.60;;;6.95;;
66946;SDS011;53853;51.982;5.928;2023-07-13T06:05:25;8.85;;;4.85;;
66946;SDS011;53853;51.982;5.928;2023-07-13T06:07:55;11.32;;;5.95;;
66946;SDS011;53853;51.982;5.928;2023-07-13T06:10:28;12.38;;;6.88;;
66946;SDS011;53853;51.982;5.928;2023-07-13T06:13:00;10.82;;;5.13;;
66946;SDS011;53853;51.982;5.928;2023-07-13T06:15:31;13.68;;;7.90;;
66946;SDS011;53853;51.982;5.928;2023-07-13T06:18:01;10.65;;;5.90;;
66946;SDS011;53853;51.982;5.928;2023-07-13T06:20:33;10.25;;;5.07;;
66946;SDS011;53853;51.982;5.928;2023-07-13T06:23:03;16.92;;;7.85;;
66946;SDS011;53853;51.982;5.928;2023-07-13T06:25:35;11.77;;;5.50;;
66946;SDS011;53853;51.982;5.928;2023-07-13T06:28:06;18.23;;;9.70;;
66946;SDS011;53853;51.982;5.928;2023-07-13T06:30:37;13.38;;;8.73;;
66946;SDS011;53853;51.982;5.928;2023-07-13T06:33:08;17.92;;;8.45;;
66946;SDS011;53853;51.982;5.928;2023-07-13T06:35:38;16.10;;;9.60;;
66946;SDS011;53853;51.982;5.928;2023-07-13T06:38:08;12.75;;;6.88;;
66946;SDS011;53853;51.982;5.928;2023-07-13T06:40:41;12.00;;;6.72;;
66946;SDS011;53853;51.982;5.928;2023-07-13T06:43:11;12.15;;;6.93;;
66946;SDS011;53853;51.982;5.928;2023-07-13T06:45:43;16.88;;;10.07;;
66946;SDS011;53853;51.982;5.928;2023-07-13T06:48:16;15.63;;;9.25;;
66946;SDS011;53853;51.982;5.928;2023-07-13T06:50:47;11.23;;;6.53;;
66946;SDS011;53853;51.982;5.928;2023-07-13T06:53:19;13.27;;;6.68;;
66946;SDS011;53853;51.982;5.928;2023-07-13T06:55:52;16.73;;;8.40;;
66946;SDS011;53853;51.982;5.928;2023-07-13T06:58:22;6.25;;;5.45;;
66946;SDS011;53853;51.982;5.928;2023-07-13T07:00:52;11.68;;;6.55;;
66946;SDS011;53853;51.982;5.928;2023-07-13T07:03:22;15.88;;;8.57;;
66946;SDS011;53853;51.982;5.928;2023-07-13T07:05:53;13.35;;;8.05;;
66946;SDS011;53853;51.982;5.928;2023-07-13T07:08:23;17.40;;;9.90;;
66946;SDS011;53853;51.982;5.928;2023-07-13T07:10:55;14.02;;;8.43;;
66946;SDS011;53853;51.982;5.928;2023-07-13T07:13:25;12.60;;;7.70;;
66946;SDS011;53853;51.982;5.928;2023-07-13T07:15:56;10.23;;;7.07;;
66946;SDS011;53853;51.982;5.928;2023-07-13T07:18:26;10.95;;;5.40;;
66946;SDS011;53853;51.982;5.928;2023-07-13T07:20:56;12.27;;;6.70;;
66946;SDS011;53853;51.982;5.928;2023-07-13T07:23:26;16.80;;;9.85;;
66946;SDS011;53853;51.982;5.928;2023-07-13T07:25:59;18.40;;;9.07;;
66946;SDS011;53853;51.982;5.928;2023-07-13T07:28:29;15.25;;;8.05;;
66946;SDS011;53853;51.982;5.928;2023-07-13T07:31:00;14.18;;;9.82;;
66946;SDS011;53853;51.982;5.928;2023-07-13T07:33:30;15.75;;;8.85;;
66946;SDS011;53853;51.982;5.928;2023-07-13T07:36:01;11.07;;;6.40;;
66946;SDS011;53853;51.982;5.928;2023-07-13T07:38:31;15.60;;;9.48;;
66946;SDS011;53853;51.982;5.928;2023-07-13T07:41:05;11.00;;;7.03;;
66946;SDS011;53853;51.982;5.928;2023-07-13T07:43:35;13.88;;;9.52;;
66946;SDS011;53853;51.982;5.928;2023-07-13T07:46:05;17.08;;;9.70;;
66946;SDS011;53853;51.982;5.928;2023-07-13T07:48:35;11.77;;;7.03;;
66946;SDS011;53853;51.982;5.928;2023-07-13T07:51:05;17.90;;;10.45;;
66946;SDS011;53853;51.982;5.928;2023-07-13T07:53:36;13.48;;;8.32;;
66946;SDS011;53853;51.982;5.928;2023-07-13T07:56:08;14.80;;;9.18;;
66946;SDS011;53853;51.982;5.928;2023-07-13T07:58:38;17.33;;;10.25;;
66946;SDS011;53853;51.982;5.928;2023-07-13T08:01:09;17.77;;;10.68;;
66946;SDS011;53853;51.982;5.928;2023-07-13T08:03:39;17.42;;;9.00;;
66946;SDS011;53853;51.982;5.928;2023-07-13T08:06:09;15.15;;;10.05;;
66946;SDS011;53853;51.982;5.928;2023-07-13T08:08:39;15.90;;;9.63;;
66946;SDS011;53853;51.982;5.928;2023-07-13T08:11:12;9.93;;;6.35;;
66946;SDS011;53853;51.982;5.928;2023-07-13T08:13:42;12.38;;;7.40;;
66946;SDS011;53853;51.982;5.928;2023-07-13T08:16:12;14.57;;;8.32;;
66946;SDS011;53853;51.982;5.928;2023-07-13T08:18:42;14.90;;;8.30;;
66946;SDS011;53853;51.982;5.928;2023-07-13T08:21:12;19.17;;;10.57;;
66946;SDS011;53853;51.982;5.928;2023-07-13T08:23:45;19.10;;;9.73;;
66946;SDS011;53853;51.982;5.928;2023-07-13T08:26:18;14.35;;;10.35;;
66946;SDS011;53853;51.982;5.928;2023-07-13T08:28:48;14.70;;;9.15;;
66946;SDS011;53853;51.982;5.928;2023-07-13T08:31:18;14.00;;;7.50;;
66946;SDS011;53853;51.982;5.928;2023-07-13T08:33:49;13.73;;;8.07;;
66946;SDS011;53853;51.982;5.928;2023-07-13T08:36:19;13.70;;;9.00;;
66946;SDS011;53853;51.982;5.928;2023-07-13T08:38:49;13.38;;;7.68;;
66946;SDS011;53853;51.982;5.928;2023-07-13T08:41:21;17.85;;;9.88;;
66946;SDS011;53853;51.982;5.928;2023-07-13T08:43:54;10.60;;;7.30;;
66946;SDS011;53853;51.982;5.928;2023-07-13T08:46:28;12.50;;;6.68;;
66946;SDS011;53853;51.982;5.928;2023-07-13T08:49:03;11.48;;;6.43;;
66946;SDS011;53853;51.982;5.928;2023-07-13T08:51:39;10.38;;;6.65;;
66946;SDS011;53853;51.982;5.928;2023-07-13T08:54:17;15.65;;;7.53;;
66946;SDS011;53853;51.982;5.928;2023-07-13T08:56:54;9.57;;;5.78;;
66946;SDS011;53853;51.982;5.928;2023-07-13T08:59:27;11.00;;;8.10;;
66946;SDS011;53853;51.982;5.928;2023-07-13T09:02:13;12.00;;;6.03;;
66946;SDS011;53853;51.982;5.928;2023-07-13T09:04:53;11.55;;;6.88;;
66946;SDS011;53853;51.982;5.928;2023-07-13T09:07:30;7.35;;;5.00;;
66946;SDS011;53853;51.982;5.928;2023-07-13T09:10:13;8.15;;;5.95;;
66946;SDS011;53853;51.982;5.928;2023-07-13T09:12:51;10.70;;;5.35;;
66946;SDS011;53853;51.982;5.928;2023-07-13T09:15:38;8.70;;;5.07;;
66946;SDS011;53853;51.982;5.928;2023-07-13T09:18:10;12.07;;;6.18;;
66946;SDS011;53853;51.982;5.928;2023-07-13T09:20:46;10.45;;;5.10;;
66946;SDS011;53853;51.982;5.928;2023-07-13T09:23:20;11.82;;;5.45;;
66946;SDS011;53853;51.982;5.928;2023-07-13T09:25:53;11.90;;;6.20;;
66946;SDS011;53853;51.982;5.928;2023-07-13T09:28:33;9.23;;;5.15;;
66946;SDS011;53853;51.982;5.928;2023-07-13T09:31:09;7.22;;;4.13;;
66946;SDS011;53853;51.982;5.928;2023-07-13T09:33:43;10.20;;;4.90;;
66946;SDS011;53853;51.982;5.928;2023-07-13T09:36:17;9.32;;;4.82;;
66946;SDS011;53853;51.982;5.928;2023-07-13T09:38:59;10.48;;;5.68;;
66946;SDS011;53853;51.982;5.928;2023-07-13T09:41:35;9.25;;;4.20;;
66946;SDS011;53853;51.982;5.928;2023-07-13T09:44:13;9.45;;;4.70;;
66946;SDS011;53853;51.982;5.928;2023-07-13T09:46:46;8.95;;;3.95;;
66946;SDS011;53853;51.982;5.928;2023-07-13T09:49:23;4.70;;;2.72;;
66946;SDS011;53853;51.982;5.928;2023-07-13T09:51:57;6.20;;;2.53;;
66946;SDS011;53853;51.982;5.928;2023-07-13T09:54:32;4.57;;;2.20;;
66946;SDS011;53853;51.982;5.928;2023-07-13T09:57:13;5.70;;;3.05;;
66946;SDS011;53853;51.982;5.928;2023-07-13T09:59:47;8.60;;;3.88;;
66946;SDS011;53853;51.982;5.928;2023-07-13T10:02:26;11.30;;;3.80;;
66946;SDS011;53853;51.982;5.928;2023-07-13T10:04:59;6.78;;;3.38;;
66946;SDS011;53853;51.982;5.928;2023-07-13T10:07:31;9.02;;;3.72;;
66946;SDS011;53853;51.982;5.928;2023-07-13T10:10:13;11.98;;;5.13;;
66946;SDS011;53853;51.982;5.928;2023-07-13T10:12:44;6.88;;;4.28;;
66946;SDS011;53853;51.982;5.928;2023-07-13T10:15:18;8.18;;;3.90;;
66946;SDS011;53853;51.982;5.928;2023-07-13T10:17:51;9.70;;;4.18;;
66946;SDS011;53853;51.982;5.928;2023-07-13T10:20:24;9.00;;;5.65;;
66946;SDS011;53853;51.982;5.928;2023-07-13T10:22:58;6.95;;;4.15;;
66946;SDS011;53853;51.982;5.928;2023-07-13T10:25:31;13.65;;;5.20;;
66946;SDS011;53853;51.982;5.928;2023-07-13T10:28:04;12.38;;;5.03;;
66946;SDS011;53853;51.982;5.928;2023-07-13T10:30:43;7.25;;;4.18;;
66946;SDS011;53853;51.982;5.928;2023-07-13T10:33:16;12.02;;;5.22;;
66946;SDS011;53853;51.982;5.928;2023-07-13T10:35:46;7.72;;;4.50;;
66946;SDS011;53853;51.982;5.928;2023-07-13T10:38:21;7.60;;;3.90;;
66946;SDS011;53853;51.982;5.928;2023-07-13T10:40:56;8.23;;;3.35;;
66946;SDS011;53853;51.982;5.928;2023-07-13T10:43:32;7.07;;;2.85;;
66946;SDS011;53853;51.982;5.928;2023-07-13T10:46:11;5.35;;;2.42;;
66946;SDS011;53853;51.982;5.928;2023-07-13T10:48:44;7.40;;;3.65;;
66946;SDS011;53853;51.982;5.928;2023-07-13T10:51:18;6.57;;;3.42;;
66946;SDS011;53853;51.982;5.928;2023-07-13T10:56:44;9.60;;;3.30;;
66946;SDS011;53853;51.982;5.928;2023-07-13T10:59:15;4.40;;;2.67;;
66946;SDS011;53853;51.982;5.928;2023-07-13T11:01:56;7.78;;;3.75;;
66946;SDS011;53853;51.982;5.928;2023-07-13T11:04:28;9.75;;;3.50;;
66946;SDS011;53853;51.982;5.928;2023-07-13T11:07:10;14.35;;;10.00;;
66946;SDS011;53853;51.982;5.928;2023-07-13T11:09:49;6.43;;;3.83;;
66946;SDS011;53853;51.982;5.928;2023-07-13T11:15:32;5.97;;;2.72;;
66946;SDS011;53853;51.982;5.928;2023-07-13T11:18:22;9.20;;;3.72;;
66946;SDS011;53853;51.982;5.928;2023-07-13T11:20:53;7.60;;;4.00;;
66946;SDS011;53853;51.982;5.928;2023-07-13T11:23:43;5.05;;;2.65;;
66946;SDS011;53853;51.982;5.928;2023-07-13T11:29:14;6.43;;;3.33;;
66946;SDS011;53853;51.982;5.928;2023-07-13T11:32:01;5.95;;;3.33;;
66946;SDS011;53853;51.982;5.928;2023-07-13T11:34:55;7.93;;;3.45;;
66946;SDS011;53853;51.982;5.928;2023-07-13T11:37:26;7.38;;;3.38;;
66946;SDS011;53853;51.982;5.928;2023-07-13T11:39:58;5.78;;;2.50;;
66946;SDS011;53853;51.982;5.928;2023-07-13T11:42:28;6.40;;;2.47;;
66946;SDS011;53853;51.982;5.928;2023-07-13T11:45:00;4.35;;;2.30;;
66946;SDS011;53853;51.982;5.928;2023-07-13T11:47:32;4.15;;;2.15;;
66946;SDS011;53853;51.982;5.928;2023-07-13T11:50:05;4.15;;;1.77;;
66946;SDS011;53853;51.982;5.928;2023-07-13T11:52:46;3.35;;;1.80;;
66946;SDS011;53853;51.982;5.928;2023-07-13T11:55:20;4.57;;;2.35;;
66946;SDS011;53853;51.982;5.928;2023-07-13T11:57:51;4.60;;;2.28;;
66946;SDS011;53853;51.982;5.928;2023-07-13T12:00:28;5.85;;;2.65;;
66946;SDS011;53853;51.982;5.928;2023-07-13T12:03:00;7.63;;;2.67;;
66946;SDS011;53853;51.982;5.928;2023-07-13T12:05:34;4.75;;;2.55;;
66946;SDS011;53853;51.982;5.928;2023-07-13T12:08:08;6.27;;;3.17;;
66946;SDS011;53853;51.982;5.928;2023-07-13T12:10:39;3.95;;;2.70;;
66946;SDS011;53853;51.982;5.928;2023-07-13T12:13:13;4.03;;;2.65;;
66946;SDS011;53853;51.982;5.928;2023-07-13T12:15:44;5.78;;;2.90;;
66946;SDS011;53853;51.982;5.928;2023-07-13T12:18:16;6.13;;;2.50;;
66946;SDS011;53853;51.982;5.928;2023-07-13T12:20:54;3.90;;;2.10;;
66946;SDS011;53853;51.982;5.928;2023-07-13T12:23:28;5.53;;;2.38;;
66946;SDS011;53853;51.982;5.928;2023-07-13T12:26:01;5.80;;;3.03;;
66946;SDS011;53853;51.982;5.928;2023-07-13T12:28:35;4.63;;;2.85;;
66946;SDS011;53853;51.982;5.928;2023-07-13T12:31:08;4.30;;;2.17;;
66946;SDS011;53853;51.982;5.928;2023-07-13T12:33:57;5.63;;;2.58;;
66946;SDS011;53853;51.982;5.928;2023-07-13T12:36:35;4.93;;;2.38;;
66946;SDS011;53853;51.982;5.928;2023-07-13T12:39:13;4.90;;;2.45;;
66946;SDS011;53853;51.982;5.928;2023-07-13T12:41:45;5.97;;;2.58;;
66946;SDS011;53853;51.982;5.928;2023-07-13T12:44:16;5.70;;;2.53;;
66946;SDS011;53853;51.982;5.928;2023-07-13T12:46:52;4.82;;;2.35;;
66946;SDS011;53853;51.982;5.928;2023-07-13T12:52:02;4.60;;;2.20;;
66946;SDS011;53853;51.982;5.928;2023-07-13T12:54:52;5.80;;;1.83;;
66946;SDS011;53853;51.982;5.928;2023-07-13T12:57:24;4.50;;;2.25;;
66946;SDS011;53853;51.982;5.928;2023-07-13T12:59:55;5.82;;;2.72;;
66946;SDS011;53853;51.982;5.928;2023-07-13T13:02:29;3.95;;;2.30;;
66946;SDS011;53853;51.982;5.928;2023-07-13T13:05:06;4.22;;;2.20;;
66946;SDS011;53853;51.982;5.928;2023-07-13T13:07:45;7.97;;;2.30;;
66946;SDS011;53853;51.982;5.928;2023-07-13T13:10:15;5.00;;;2.72;;
66946;SDS011;53853;51.982;5.928;2023-07-13T13:12:47;4.85;;;3.15;;
66946;SDS011;53853;51.982;5.928;2023-07-13T13:15:18;5.30;;;2.42;;
66946;SDS011;53853;51.982;5.928;2023-07-13T13:17:48;4.60;;;2.30;;
66946;SDS011;53853;51.982;5.928;2023-07-13T13:20:19;5.88;;;2.75;;
66946;SDS011;53853;51.982;5.928;2023-07-13T13:22:54;4.40;;;2.13;;
66946;SDS011;53853;51.982;5.928;2023-07-13T13:25:24;3.83;;;2.10;;
66946;SDS011;53853;51.982;5.928;2023-07-13T13:27:54;3.35;;;2.25;;
66946;SDS011;53853;51.982;5.928;2023-07-13T13:30:24;6.28;;;2.53;;
66946;SDS011;53853;51.982;5.928;2023-07-13T13:32:55;4.53;;;2.85;;
66946;SDS011;53853;51.982;5.928;2023-07-13T13:35:25;3.75;;;2.45;;
66946;SDS011;53853;51.982;5.928;2023-07-13T13:37:58;4.80;;;2.08;;
66946;SDS011;53853;51.982;5.928;2023-07-13T13:40:28;6.75;;;2.92;;
66946;SDS011;53853;51.982;5.928;2023-07-13T13:42:58;5.25;;;2.58;;
66946;SDS011;53853;51.982;5.928;2023-07-13T13:45:28;7.05;;;3.17;;
66946;SDS011;53853;51.982;5.928;2023-07-13T13:47:58;5.57;;;2.42;;
66946;SDS011;53853;51.982;5.928;2023-07-13T13:50:28;4.07;;;2.42;;
66946;SDS011;53853;51.982;5.928;2023-07-13T13:53:01;5.75;;;2.75;;
66946;SDS011;53853;51.982;5.928;2023-07-13T13:55:34;3.97;;;2.03;;
66946;SDS011;53853;51.982;5.928;2023-07-13T13:58:04;4.18;;;1.85;;
66946;SDS011;53853;51.982;5.928;2023-07-13T14:00:34;3.15;;;1.20;;
66946;SDS011;53853;51.982;5.928;2023-07-13T14:03:05;3.63;;;1.92;;
66946;SDS011;53853;51.982;5.928;2023-07-13T14:05:42;4.82;;;2.33;;
66946;SDS011;53853;51.982;5.928;2023-07-13T14:08:16;4.53;;;2.15;;
66946;SDS011;53853;51.982;5.928;2023-07-13T14:10:49;4.25;;;2.15;;
66946;SDS011;53853;51.982;5.928;2023-07-13T14:13:22;3.42;;;1.70;;
66946;SDS011;53853;51.982;5.928;2023-07-13T14:18:25;5.15;;;2.20;;
66946;SDS011;53853;51.982;5.928;2023-07-13T14:20:55;6.90;;;2.72;;
66946;SDS011;53853;51.982;5.928;2023-07-13T14:23:27;3.08;;;2.22;;
66946;SDS011;53853;51.982;5.928;2023-07-13T14:25:57;5.40;;;2.47;;
66946;SDS011;53853;51.982;5.928;2023-07-13T14:28:28;4.03;;;2.10;;
66946;SDS011;53853;51.982;5.928;2023-07-13T14:30:58;4.28;;;2.22;;
66946;SDS011;53853;51.982;5.928;2023-07-13T14:33:28;4.00;;;2.30;;
66946;SDS011;53853;51.982;5.928;2023-07-13T14:35:59;3.95;;;2.10;;
66946;SDS011;53853;51.982;5.928;2023-07-13T14:38:31;3.67;;;2.10;;
66946;SDS011;53853;51.982;5.928;2023-07-13T14:41:02;3.17;;;1.63;;
66946;SDS011;53853;51.982;5.928;2023-07-13T14:43:32;6.80;;;2.13;;
66946;SDS011;53853;51.982;5.928;2023-07-13T14:46:02;3.53;;;1.95;;
66946;SDS011;53853;51.982;5.928;2023-07-13T14:48:32;3.92;;;1.73;;
66946;SDS011;53853;51.982;5.928;2023-07-13T14:51:03;5.95;;;1.98;;
66946;SDS011;53853;51.982;5.928;2023-07-13T14:53:36;4.18;;;2.90;;
66946;SDS011;53853;51.982;5.928;2023-07-13T14:56:08;3.97;;;1.83;;
66946;SDS011;53853;51.982;5.928;2023-07-13T14:58:40;3.63;;;2.10;;
66946;SDS011;53853;51.982;5.928;2023-07-13T15:01:11;5.35;;;2.22;;
66946;SDS011;53853;51.982;5.928;2023-07-13T15:03:44;3.58;;;1.60;;
66946;SDS011;53853;51.982;5.928;2023-07-13T15:06:17;3.25;;;1.90;;
66946;SDS011;53853;51.982;5.928;2023-07-13T15:08:50;3.55;;;2.13;;
66946;SDS011;53853;51.982;5.928;2023-07-13T15:11:21;4.47;;;2.00;;
66946;SDS011;53853;51.982;5.928;2023-07-13T15:13:52;4.32;;;2.20;;
66946;SDS011;53853;51.982;5.928;2023-07-13T15:16:23;3.47;;;1.90;;
66946;SDS011;53853;51.982;5.928;2023-07-13T15:18:54;4.55;;;2.15;;
66946;SDS011;53853;51.982;5.928;2023-07-13T15:21:24;4.30;;;1.80;;
66946;SDS011;53853;51.982;5.928;2023-07-13T15:24:03;3.10;;;1.67;;
66946;SDS011;53853;51.982;5.928;2023-07-13T15:26:34;3.92;;;2.20;;
66946;SDS011;53853;51.982;5.928;2023-07-13T15:29:05;5.72;;;2.00;;